Time;durP1;ratioP1;P1;durP2;ratioP2;P2;SDS_P1;SDS_P2;PMS_P1;PMS_P2;Temp;Humidity;BMP_temperature;BMP_pressure;BME280_temperature;BME280_humidity;BME280_pressure;Samples;Min_cycle;Max_cycle;Signal;HPM_P1;HPM_P2
2022/07/11 00:02:25;;;;;;;0.10;0.10;;;15.80;99.90;;;;;;4988184;28;20050;-70
2022/07/11 00:04:52;;;;;;;0.20;0.13;;;15.80;99.90;;;;;;4987819;28;20148;-66
2022/07/11 00:07:19;;;;;;;0.65;0.20;;;15.80;99.90;;;;;;4986532;28;20057;-72
2022/07/11 00:09:46;;;;;;;0.40;0.30;;;15.80;99.90;;;;;;4989413;28;21128;-72
2022/07/11 00:12:13;;;;;;;0.45;0.30;;;15.80;99.90;;;;;;4987889;28;20045;-69
2022/07/11 00:14:41;;;;;;;0.20;0.20;;;15.80;99.90;;;;;;4986347;28;20489;-71
2022/07/11 00:17:08;;;;;;;0.40;0.30;;;15.80;99.90;;;;;;4974586;28;20101;-72
2022/07/11 00:19:36;;;;;;;0.57;0.20;;;15.80;99.90;;;;;;4988679;28;20790;-69
2022/07/11 00:22:04;;;;;;;0.70;0.70;;;15.70;99.90;;;;;;4991740;28;20133;-64
2022/07/11 00:24:31;;;;;;;0.32;0.22;;;15.70;99.90;;;;;;4993080;28;20799;-71
2022/07/11 00:26:59;;;;;;;0.20;0.20;;;15.70;99.90;;;;;;4991969;28;20046;-69
2022/07/11 00:29:26;;;;;;;0.73;0.20;;;15.70;99.90;;;;;;4987327;28;20073;-69
2022/07/11 00:31:53;;;;;;;1.75;0.30;;;15.70;99.90;;;;;;4990715;28;20511;-67
2022/07/11 00:34:21;;;;;;;0.40;0.40;;;15.80;99.90;;;;;;4991241;28;20058;-72
2022/07/11 00:36:48;;;;;;;0.30;0.30;;;15.80;99.90;;;;;;4990373;28;20065;-66
2022/07/11 00:39:15;;;;;;;0.43;0.30;;;15.70;99.90;;;;;;4988714;28;20144;-64
2022/07/11 00:41:42;;;;;;;0.10;0.10;;;15.70;99.90;;;;;;4987904;28;20054;-73
2022/07/11 00:44:09;;;;;;;0.35;0.35;;;15.80;99.90;;;;;;4991832;28;20054;-73
2022/07/11 00:46:36;;;;;;;0.20;0.20;;;15.80;99.90;;;;;;4991065;28;20112;-64
2022/07/11 00:49:04;;;;;;;0.20;0.20;;;15.80;99.90;;;;;;4990862;28;20064;-70
2022/07/11 00:51:31;;;;;;;0.35;0.30;;;15.80;99.90;;;;;;4988462;28;20123;-68
2022/07/11 00:53:59;;;;;;;0.73;0.45;;;15.80;99.90;;;;;;4991753;28;20074;-70
2022/07/11 00:56:29;;;;;;;0.30;0.30;;;15.80;99.90;;;;;;4985116;28;21065;-69
2022/07/11 00:58:58;;;;;;;0.20;0.20;;;15.90;99.90;;;;;;4989102;28;20057;-68
2022/07/11 01:01:26;;;;;;;0.30;0.20;;;15.90;99.90;;;;;;4990096;28;20546;-65
2022/07/11 01:03:53;;;;;;;0.50;0.40;;;15.90;99.90;;;;;;4991369;28;21232;-66
2022/07/11 01:06:21;;;;;;;0.30;0.30;;;15.80;99.90;;;;;;4990441;28;20131;-71
2022/07/11 01:08:48;;;;;;;0.90;0.40;;;15.80;99.90;;;;;;4978497;28;20142;-70
2022/07/11 01:11:18;;;;;;;0.20;0.20;;;15.80;99.90;;;;;;4987346;28;20794;-70
2022/07/11 01:13:46;;;;;;;0.30;0.20;;;15.80;99.90;;;;;;4993446;28;20046;-68
2022/07/11 01:16:18;;;;;;;0.30;0.30;;;15.80;99.90;;;;;;4991142;28;20092;-68
2022/07/11 01:18:48;;;;;;;0.68;0.68;;;15.70;99.90;;;;;;4993193;28;20757;-70
2022/07/11 01:21:15;;;;;;;0.50;0.32;;;15.80;99.90;;;;;;4989997;28;20050;-66
2022/07/11 01:23:42;;;;;;;0.25;0.25;;;15.70;99.90;;;;;;4991431;28;20061;-70
2022/07/11 01:26:10;;;;;;;0.30;0.30;;;15.70;99.90;;;;;;4990167;28;20046;-68
2022/07/11 01:28:37;;;;;;;0.70;0.43;;;15.80;99.90;;;;;;4984973;28;20054;-66
2022/07/11 01:31:04;;;;;;;0.47;0.40;;;15.80;99.90;;;;;;4978569;28;20243;-68
2022/07/11 01:33:34;;;;;;;0.28;0.28;;;15.80;99.90;;;;;;4989627;28;20664;-68
2022/07/11 01:36:02;;;;;;;1.70;0.55;;;15.80;99.90;;;;;;4991277;28;20085;-69
2022/07/11 01:38:29;;;;;;;0.30;0.30;;;15.80;99.90;;;;;;4989708;28;20050;-70
2022/07/11 01:40:56;;;;;;;0.20;0.20;;;15.80;99.90;;;;;;4991201;28;20060;-69
2022/07/11 01:43:23;;;;;;;0.47;0.40;;;15.80;99.90;;;;;;4989377;28;20060;-66
2022/07/11 01:45:51;;;;;;;0.20;0.20;;;15.80;99.90;;;;;;4991991;28;20705;-71
2022/07/11 01:48:19;;;;;;;0.30;0.30;;;15.80;99.90;;;;;;4991210;28;20058;-69
2022/07/11 01:50:47;;;;;;;0.20;0.20;;;15.70;99.90;;;;;;4991412;28;20046;-64
2022/07/11 01:53:14;;;;;;;0.73;0.50;;;15.80;99.90;;;;;;4988826;28;20077;-66
2022/07/11 01:55:41;;;;;;;0.70;0.40;;;15.80;99.90;;;;;;4991995;28;20147;-64
2022/07/11 01:58:31;;;;;;;0.57;0.40;;;15.80;99.90;;;;;;4990116;28;20043;-67
2022/07/11 02:00:59;;;;;;;0.50;0.40;;;15.80;99.90;;;;;;4990314;28;20481;-67
2022/07/11 02:03:26;;;;;;;0.43;0.30;;;15.80;99.90;;;;;;4989736;28;20110;-68
2022/07/11 02:05:53;;;;;;;1.00;0.40;;;15.80;99.90;;;;;;4991371;28;20598;-67
2022/07/11 02:08:20;;;;;;;0.30;0.30;;;15.80;99.90;;;;;;4991182;28;20165;-71
2022/07/11 02:10:49;;;;;;;0.47;0.40;;;15.80;99.90;;;;;;4991868;28;20054;-66
2022/07/11 02:13:18;;;;;;;1.02;0.30;;;15.80;99.90;;;;;;4988269;28;20544;-71
2022/07/11 02:15:46;;;;;;;0.37;0.37;;;15.80;99.90;;;;;;4989694;28;20066;-67
2022/07/11 02:18:13;;;;;;;0.32;0.30;;;15.80;99.90;;;;;;4990271;28;20046;-70
2022/07/11 02:20:41;;;;;;;0.30;0.30;;;15.90;99.90;;;;;;4988919;28;20077;-75
2022/07/11 02:23:09;;;;;;;0.43;0.38;;;15.90;99.90;;;;;;4989405;28;20597;-67
2022/07/11 02:25:38;;;;;;;0.77;0.77;;;15.90;99.90;;;;;;4989596;28;20141;-71
2022/07/11 02:28:09;;;;;;;0.28;0.28;;;15.90;99.90;;;;;;4990809;28;20053;-70
2022/07/11 02:30:37;;;;;;;0.30;0.30;;;15.90;99.90;;;;;;4980745;28;20651;-70
2022/07/11 02:33:07;;;;;;;0.30;0.30;;;15.90;99.90;;;;;;4989011;28;20444;-68
2022/07/11 02:35:35;;;;;;;0.40;0.40;;;15.90;99.90;;;;;;4987891;28;20127;-66
2022/07/11 02:38:02;;;;;;;0.30;0.30;;;15.90;99.90;;;;;;4990064;28;20463;-71
2022/07/11 02:40:29;;;;;;;0.40;0.40;;;15.90;99.90;;;;;;4989672;28;20116;-69
2022/07/11 02:42:56;;;;;;;0.80;0.40;;;15.90;99.90;;;;;;4990069;28;20128;-69
2022/07/11 02:45:23;;;;;;;0.35;0.30;;;15.90;99.90;;;;;;4987574;28;20981;-70
2022/07/11 02:47:50;;;;;;;0.65;0.40;;;15.90;99.90;;;;;;4990214;28;20050;-69
2022/07/11 02:50:17;;;;;;;0.30;0.30;;;15.90;99.90;;;;;;4990387;28;20078;-71
2022/07/11 02:52:44;;;;;;;0.95;0.63;;;15.90;99.90;;;;;;4988938;28;20120;-68
2022/07/11 02:55:12;;;;;;;0.73;0.73;;;16.00;99.90;;;;;;4986298;28;20081;-71
2022/07/11 02:57:39;;;;;;;0.50;0.50;;;16.00;99.90;;;;;;4989847;28;20131;-68
2022/07/11 03:00:15;;;;;;;0.73;0.73;;;16.00;99.90;;;;;;4990235;28;21511;-65
2022/07/11 03:02:43;;;;;;;1.63;0.60;;;16.00;99.90;;;;;;4990299;28;20060;-64
2022/07/11 03:05:10;;;;;;;0.40;0.40;;;16.00;99.90;;;;;;4988378;28;20097;-64
2022/07/11 03:07:37;;;;;;;0.30;0.30;;;16.10;99.90;;;;;;4989810;28;20771;-68
2022/07/11 03:10:04;;;;;;;1.95;0.88;;;16.10;99.90;;;;;;4989314;28;20828;-67
2022/07/11 03:12:31;;;;;;;0.93;0.43;;;16.10;99.90;;;;;;4988613;28;20149;-65
2022/07/11 03:14:58;;;;;;;1.85;0.90;;;16.10;99.90;;;;;;4990572;28;20178;-66
2022/07/11 03:17:25;;;;;;;0.65;0.65;;;16.10;99.90;;;;;;4987216;28;20120;-66
2022/07/11 03:19:52;;;;;;;0.80;0.80;;;16.20;99.90;;;;;;4989726;28;20133;-68
2022/07/11 03:22:19;;;;;;;0.68;0.68;;;16.20;99.90;;;;;;4989702;28;20597;-67
2022/07/11 03:24:46;;;;;;;0.50;0.50;;;16.20;99.90;;;;;;4989286;28;21352;-67
2022/07/11 03:27:13;;;;;;;4.50;0.52;;;16.20;99.90;;;;;;4986797;28;20132;-72
2022/07/11 03:29:40;;;;;;;0.90;0.38;;;16.20;99.90;;;;;;4988605;28;20516;-67
2022/07/11 03:32:09;;;;;;;0.50;0.40;;;16.30;99.90;;;;;;4987568;28;20081;-70
2022/07/11 03:34:37;;;;;;;0.40;0.40;;;16.30;99.90;;;;;;4990338;28;20054;-67
2022/07/11 03:37:04;;;;;;;0.40;0.40;;;16.40;99.90;;;;;;4988676;28;20085;-67
2022/07/11 03:39:31;;;;;;;0.52;0.50;;;16.40;99.90;;;;;;4987336;28;20065;-67
2022/07/11 03:41:58;;;;;;;0.77;0.40;;;16.50;99.90;;;;;;4989120;28;20506;-68
2022/07/11 03:44:25;;;;;;;0.30;0.30;;;16.70;99.90;;;;;;4990598;28;20133;-70
2022/07/11 03:46:52;;;;;;;1.48;0.40;;;16.80;99.90;;;;;;4986890;28;20099;-65
2022/07/11 03:49:19;;;;;;;0.40;0.40;;;16.90;99.90;;;;;;4985987;28;20065;-71
2022/07/11 03:51:46;;;;;;;1.33;0.50;;;17.00;99.90;;;;;;4989101;28;20065;-66
2022/07/11 03:54:13;;;;;;;0.70;0.30;;;17.00;99.90;;;;;;4989410;28;20089;-68
2022/07/11 03:56:39;;;;;;;0.40;0.40;;;17.00;99.90;;;;;;4989618;28;20157;-70
2022/07/11 03:59:06;;;;;;;0.68;0.68;;;17.00;99.90;;;;;;4987663;28;20181;-66
2022/07/11 04:01:33;;;;;;;0.90;0.20;;;17.00;99.90;;;;;;4991029;28;20128;-66
2022/07/11 04:04:00;;;;;;;2.80;0.88;;;17.00;99.90;;;;;;4988033;28;20053;-67
2022/07/11 04:06:27;;;;;;;2.53;1.48;;;17.00;99.90;;;;;;4988783;28;20112;-67
2022/07/11 04:08:54;;;;;;;0.38;0.38;;;17.00;99.90;;;;;;4989223;28;20123;-66
2022/07/11 04:11:21;;;;;;;0.85;0.80;;;17.00;99.90;;;;;;4987627;28;20133;-69
2022/07/11 04:13:48;;;;;;;2.05;0.57;;;17.00;99.90;;;;;;4989869;28;21502;-64
2022/07/11 04:16:15;;;;;;;0.40;0.40;;;16.90;99.90;;;;;;4987905;28;20061;-70
2022/07/11 04:18:42;;;;;;;0.90;0.30;;;16.90;99.90;;;;;;4989778;28;21575;-69
2022/07/11 04:21:09;;;;;;;0.65;0.50;;;16.90;99.90;;;;;;4988473;28;20398;-70
2022/07/11 04:23:36;;;;;;;1.90;0.50;;;16.80;99.90;;;;;;4988925;28;20093;-69
2022/07/11 04:26:04;;;;;;;0.52;0.35;;;16.80;99.90;;;;;;4990644;28;20062;-70
2022/07/11 04:28:32;;;;;;;0.70;0.55;;;16.80;99.90;;;;;;4989219;28;20049;-71
2022/07/11 04:30:59;;;;;;;0.95;0.70;;;16.70;99.90;;;;;;4988821;28;20128;-68
2022/07/11 04:33:25;;;;;;;1.13;0.63;;;16.70;99.90;;;;;;4988916;28;20169;-68
2022/07/11 04:35:52;;;;;;;1.40;0.75;;;16.60;99.90;;;;;;4990339;28;20057;-65
2022/07/11 04:38:21;;;;;;;0.40;0.40;;;16.60;99.90;;;;;;4989411;28;20050;-64
2022/07/11 04:40:48;;;;;;;0.38;0.38;;;16.70;99.90;;;;;;4988816;28;20185;-65
2022/07/11 04:43:16;;;;;;;1.67;0.60;;;16.70;99.90;;;;;;4988925;28;20057;-65
2022/07/11 04:45:43;;;;;;;2.25;0.50;;;16.70;99.90;;;;;;4990218;28;20051;-67
2022/07/11 04:48:11;;;;;;;1.73;0.57;;;16.70;99.90;;;;;;4989452;28;20065;-73
2022/07/11 04:50:38;;;;;;;1.38;0.60;;;16.80;99.90;;;;;;4988970;28;20089;-65
2022/07/11 04:53:05;;;;;;;1.10;0.50;;;16.80;99.90;;;;;;4989383;28;20046;-68
2022/07/11 04:55:32;;;;;;;0.40;0.40;;;16.80;99.90;;;;;;4988462;28;20073;-68
2022/07/11 04:57:59;;;;;;;0.55;0.55;;;16.90;99.90;;;;;;4989236;28;20105;-73
2022/07/11 05:00:26;;;;;;;3.08;1.73;;;16.90;99.90;;;;;;4990039;28;20483;-67
2022/07/11 05:02:53;;;;;;;1.70;0.93;;;17.00;99.90;;;;;;4991597;28;20169;-67
2022/07/11 05:05:21;;;;;;;0.68;0.40;;;17.00;99.90;;;;;;4987297;28;20086;-72
2022/07/11 05:07:48;;;;;;;0.73;0.50;;;17.00;99.90;;;;;;4991724;28;20038;-64
2022/07/11 05:10:15;;;;;;;1.83;0.68;;;17.00;99.90;;;;;;4992372;28;21484;-69
2022/07/11 05:12:42;;;;;;;1.00;0.57;;;17.00;99.90;;;;;;4992548;28;20052;-72
2022/07/11 05:15:09;;;;;;;0.85;0.85;;;17.00;99.90;;;;;;4992055;28;20154;-70
2022/07/11 05:17:36;;;;;;;0.60;0.60;;;17.00;99.90;;;;;;4993683;28;20077;-69
2022/07/11 05:20:09;;;;;;;0.65;0.50;;;17.10;99.90;;;;;;4988185;28;20077;-72
2022/07/11 05:22:36;;;;;;;0.93;0.80;;;17.10;99.90;;;;;;4979401;28;20549;-65
2022/07/11 05:25:04;;;;;;;0.88;0.57;;;17.10;99.90;;;;;;4989915;28;20191;-72
2022/07/11 05:27:30;;;;;;;2.47;0.60;;;17.10;99.90;;;;;;4991407;28;20527;-71
2022/07/11 05:29:57;;;;;;;0.40;0.40;;;17.10;99.90;;;;;;4992481;28;20672;-66
2022/07/11 05:32:24;;;;;;;1.55;0.65;;;17.10;99.90;;;;;;4992788;28;20054;-65
2022/07/11 05:34:51;;;;;;;1.20;0.52;;;17.00;99.90;;;;;;4992083;28;20496;-67
2022/07/11 05:37:18;;;;;;;0.73;0.45;;;16.90;99.90;;;;;;4987378;28;20113;-66
2022/07/11 05:39:45;;;;;;;0.50;0.50;;;16.80;99.90;;;;;;4993663;28;20070;-66
2022/07/11 05:42:13;;;;;;;0.47;0.47;;;16.80;99.90;;;;;;4991798;28;20061;-73
2022/07/11 05:44:40;;;;;;;0.35;0.35;;;16.80;99.90;;;;;;4993124;28;20049;-67
2022/07/11 05:47:07;;;;;;;3.00;0.50;;;16.70;99.90;;;;;;4990604;28;20046;-70
2022/07/11 05:49:34;;;;;;;1.55;0.52;;;16.80;99.90;;;;;;4991901;28;20050;-69
2022/07/11 05:52:04;;;;;;;0.68;0.60;;;16.80;99.90;;;;;;4991418;28;21519;-66
2022/07/11 05:54:31;;;;;;;0.68;0.60;;;16.90;99.90;;;;;;4992364;28;20060;-70
2022/07/11 05:56:58;;;;;;;1.65;0.77;;;17.00;99.90;;;;;;4991638;28;20045;-66
2022/07/11 05:59:25;;;;;;;1.02;0.77;;;17.00;99.90;;;;;;4991514;28;20131;-70
2022/07/11 06:01:51;;;;;;;1.55;0.40;;;17.10;99.90;;;;;;4993269;28;20077;-63
2022/07/11 06:04:19;;;;;;;1.15;0.82;;;17.10;99.90;;;;;;4994055;28;20205;-73
2022/07/11 06:06:46;;;;;;;0.50;0.50;;;17.10;99.90;;;;;;4992366;28;20066;-66
2022/07/11 06:09:14;;;;;;;3.03;1.08;;;17.20;99.90;;;;;;4991443;28;22052;-65
2022/07/11 06:11:41;;;;;;;0.70;0.40;;;17.20;99.90;;;;;;4992586;28;20214;-67
2022/07/11 06:14:08;;;;;;;0.80;0.45;;;17.20;99.90;;;;;;4991799;28;20054;-71
2022/07/11 06:16:35;;;;;;;6.78;1.77;;;17.20;99.90;;;;;;4989021;28;20046;-68
2022/07/11 06:19:02;;;;;;;0.68;0.43;;;17.20;99.90;;;;;;4992350;28;20388;-70
2022/07/11 06:21:29;;;;;;;1.48;1.00;;;17.20;99.90;;;;;;4990143;28;20085;-67
2022/07/11 06:23:56;;;;;;;0.80;0.45;;;17.20;99.90;;;;;;4991879;28;20157;-66
2022/07/11 06:26:23;;;;;;;0.30;0.30;;;17.30;99.90;;;;;;4991537;28;20160;-69
2022/07/11 06:28:50;;;;;;;0.35;0.35;;;17.30;99.90;;;;;;4991231;28;20123;-67
2022/07/11 06:31:17;;;;;;;3.15;0.43;;;17.30;99.90;;;;;;4991942;28;20544;-69
2022/07/11 06:33:45;;;;;;;0.30;0.30;;;17.30;99.90;;;;;;4992875;28;20045;-71
2022/07/11 06:36:13;;;;;;;0.65;0.52;;;17.40;99.90;;;;;;4992304;28;20461;-68
2022/07/11 06:38:40;;;;;;;2.47;0.50;;;17.40;99.90;;;;;;4994216;28;20137;-69
2022/07/11 06:41:08;;;;;;;0.70;0.40;;;17.30;99.90;;;;;;4990947;28;20050;-69
2022/07/11 06:43:35;;;;;;;1.30;0.90;;;17.40;99.90;;;;;;4992765;28;20146;-72
2022/07/11 06:46:02;;;;;;;0.80;0.70;;;17.50;99.90;;;;;;4988493;28;20211;-67
2022/07/11 06:48:29;;;;;;;0.30;0.30;;;17.60;99.90;;;;;;4987403;28;20046;-67
2022/07/11 06:50:56;;;;;;;0.52;0.52;;;17.60;99.90;;;;;;4991505;28;20069;-67
2022/07/11 06:53:31;;;;;;;3.42;1.98;;;17.70;99.90;;;;;;4989779;28;20046;-64
2022/07/11 06:55:58;;;;;;;1.40;1.08;;;17.60;99.90;;;;;;4991128;28;20145;-64
2022/07/11 06:58:31;;;;;;;1.85;0.50;;;17.70;99.90;;;;;;4991818;28;20046;-68
2022/07/11 07:01:06;;;;;;;1.85;0.70;;;17.60;99.90;;;;;;4991410;28;20448;-65
2022/07/11 07:03:34;;;;;;;0.60;0.60;;;17.60;99.90;;;;;;4988933;28;20046;-64
2022/07/11 07:06:01;;;;;;;0.85;0.85;;;17.60;99.90;;;;;;4991313;28;20061;-71
2022/07/11 07:08:29;;;;;;;0.90;0.60;;;17.50;99.90;;;;;;4990838;28;20053;-73
2022/07/11 07:10:57;;;;;;;1.02;0.80;;;17.40;99.90;;;;;;4993500;28;20062;-66
2022/07/11 07:13:30;;;;;;;1.67;0.82;;;17.40;99.90;;;;;;4991447;28;20049;-64
2022/07/11 07:15:57;;;;;;;2.80;0.98;;;17.50;99.90;;;;;;4990363;28;20125;-65
2022/07/11 07:18:25;;;;;;;1.00;0.90;;;17.50;99.90;;;;;;4992073;28;20058;-67
2022/07/11 07:20:52;;;;;;;1.80;1.40;;;17.50;99.90;;;;;;4992030;28;20050;-64
2022/07/11 07:23:19;;;;;;;1.10;0.98;;;17.50;99.90;;;;;;4988412;28;21049;-68
2022/07/11 07:25:46;;;;;;;0.98;0.68;;;17.50;99.90;;;;;;4990178;28;20076;-67
2022/07/11 07:28:13;;;;;;;1.17;0.65;;;17.60;99.90;;;;;;4990000;28;20054;-64
2022/07/11 07:30:40;;;;;;;6.15;1.77;;;17.60;99.90;;;;;;4990264;28;20150;-70
2022/07/11 07:33:07;;;;;;;2.25;0.85;;;17.50;99.90;;;;;;4989264;28;20076;-70
2022/07/11 07:35:34;;;;;;;1.70;1.30;;;17.40;99.90;;;;;;4990429;28;20505;-68
2022/07/11 07:38:01;;;;;;;0.90;0.65;;;17.40;99.90;;;;;;4988421;28;20073;-65
2022/07/11 07:40:28;;;;;;;0.95;0.70;;;17.40;99.90;;;;;;4991293;28;20057;-65
2022/07/11 07:42:56;;;;;;;1.42;0.70;;;17.50;99.90;;;;;;4990038;28;20053;-65
2022/07/11 07:45:23;;;;;;;1.13;0.70;;;17.50;99.90;;;;;;4989377;28;20173;-66
2022/07/11 07:47:50;;;;;;;2.92;0.57;;;17.50;99.90;;;;;;4990410;28;20057;-68
2022/07/11 07:50:17;;;;;;;2.05;0.90;;;17.60;99.90;;;;;;4989808;28;20510;-72
2022/07/11 07:52:44;;;;;;;1.13;0.90;;;17.60;99.90;;;;;;4989465;28;20100;-66
2022/07/11 07:55:12;;;;;;;0.90;0.60;;;17.70;99.90;;;;;;4987828;28;20054;-69
2022/07/11 07:57:39;;;;;;;1.35;1.10;;;17.80;99.90;;;;;;4989312;28;20069;-70
2022/07/11 08:02:52;;;;;;;0.95;0.95;;;17.90;99.90;;;;;;4990145;28;20794;-64
2022/07/11 08:05:19;;;;;;;0.70;0.70;;;18.00;99.90;;;;;;4988835;28;20187;-69
2022/07/11 08:07:47;;;;;;;1.55;0.70;;;17.90;99.90;;;;;;4990471;28;20054;-67
2022/07/11 08:10:16;;;;;;;5.00;1.70;;;17.80;99.90;;;;;;4990492;28;20129;-64
2022/07/11 08:12:44;;;;;;;1.95;1.00;;;17.70;99.90;;;;;;4988426;28;20046;-69
2022/07/11 08:15:12;;;;;;;1.63;1.40;;;17.80;99.90;;;;;;4987582;28;20039;-66
2022/07/11 08:17:41;;;;;;;0.50;0.50;;;17.80;99.90;;;;;;4988827;28;20070;-67
2022/07/11 08:20:08;;;;;;;1.08;0.70;;;17.80;99.90;;;;;;4988764;28;20127;-70
2022/07/11 08:22:35;;;;;;;1.13;1.05;;;17.80;99.90;;;;;;4988403;28;20066;-67
2022/07/11 08:25:02;;;;;;;0.75;0.70;;;17.80;99.90;;;;;;4986956;28;20582;-68
2022/07/11 08:27:29;;;;;;;1.50;0.70;;;17.80;99.90;;;;;;4986174;28;20077;-66
2022/07/11 08:30:08;;;;;;;1.42;0.90;;;17.90;99.90;;;;;;4990067;28;20050;-67
2022/07/11 08:32:40;;;;;;;2.42;0.98;;;17.90;99.90;;;;;;4988304;28;20138;-70
2022/07/11 08:35:09;;;;;;;0.82;0.82;;;17.90;99.90;;;;;;4989759;28;20050;-68
2022/07/11 08:37:36;;;;;;;0.70;0.70;;;17.90;99.90;;;;;;4991114;28;21465;-66
2022/07/11 08:40:03;;;;;;;1.35;1.25;;;18.00;99.90;;;;;;4989316;28;20060;-67
2022/07/11 08:42:33;;;;;;;2.63;0.85;;;18.00;99.90;;;;;;4993638;28;20046;-63
2022/07/11 08:45:00;;;;;;;3.22;0.60;;;18.10;99.90;;;;;;4995423;28;20073;-68
2022/07/11 08:47:29;;;;;;;2.35;0.60;;;18.10;99.90;;;;;;4991677;28;20041;-66
2022/07/11 08:49:59;;;;;;;2.75;1.30;;;18.00;99.90;;;;;;4994127;28;20054;-67
2022/07/11 08:52:27;;;;;;;2.30;0.63;;;17.90;99.90;;;;;;4992980;28;20133;-70
2022/07/11 08:54:55;;;;;;;2.45;1.00;;;18.00;99.90;;;;;;4994165;28;20070;-64
2022/07/11 08:57:22;;;;;;;1.65;0.98;;;18.10;99.90;;;;;;4991662;28;20092;-66
2022/07/11 08:59:55;;;;;;;0.70;0.70;;;18.10;99.90;;;;;;4993136;28;20050;-72
2022/07/11 09:02:24;;;;;;;4.30;1.10;;;18.00;99.90;;;;;;4993816;28;20041;-66
2022/07/11 09:04:51;;;;;;;0.75;0.68;;;18.20;99.90;;;;;;4993905;28;20046;-67
2022/07/11 09:07:18;;;;;;;0.65;0.63;;;18.30;99.90;;;;;;4990734;28;20072;-67
2022/07/11 09:09:45;;;;;;;0.88;0.63;;;18.40;99.90;;;;;;4994042;28;20116;-65
2022/07/11 09:12:15;;;;;;;3.58;0.60;;;18.40;99.90;;;;;;4992700;28;20073;-67
2022/07/11 09:14:51;;;;;;;0.88;0.68;;;18.50;99.90;;;;;;4993045;28;20050;-68
2022/07/11 09:17:27;;;;;;;0.95;0.82;;;18.50;99.90;;;;;;4991448;28;20056;-63
2022/07/11 09:19:55;;;;;;;0.70;0.50;;;18.60;99.90;;;;;;4993387;28;20062;-69
2022/07/11 09:25:19;;;;;;;0.50;0.50;;;18.50;99.90;;;;;;4990810;28;20439;-71
2022/07/11 09:27:50;;;;;;;0.90;0.80;;;18.70;99.90;;;;;;4993455;28;20069;-69
2022/07/11 09:30:35;;;;;;;0.80;0.80;;;18.50;99.90;;;;;;4994854;28;20060;-73
2022/07/11 09:33:09;;;;;;;0.77;0.75;;;18.50;99.90;;;;;;4993998;28;20127;-67
2022/07/11 09:35:46;;;;;;;2.05;0.68;;;18.60;99.90;;;;;;4991282;28;20049;-69
2022/07/11 09:38:16;;;;;;;0.80;0.63;;;18.80;99.90;;;;;;4994345;28;20053;-69
2022/07/11 09:40:44;;;;;;;;;;;18.80;99.90;;;;;;4994952;28;20058;-64
2022/07/11 09:43:11;;;;;;;1.55;1.33;;;18.70;99.90;;;;;;4991186;28;19933;-68
2022/07/11 09:45:39;;;;;;;0.70;0.70;;;18.80;99.90;;;;;;4995616;28;20082;-66
2022/07/11 09:48:15;;;;;;;2.15;0.63;;;18.80;99.90;;;;;;4993799;28;20104;-70
2022/07/11 09:50:56;;;;;;;1.92;1.00;;;18.90;99.90;;;;;;4994049;28;20053;-66
2022/07/11 09:53:23;;;;;;;1.13;0.57;;;18.80;99.90;;;;;;4990918;28;20136;-67
2022/07/11 09:55:50;;;;;;;1.17;0.60;;;19.00;99.90;;;;;;4992211;28;20054;-64
2022/07/11 09:58:21;;;;;;;2.38;0.82;;;19.00;99.90;;;;;;4992452;28;20416;-69
2022/07/11 10:00:50;;;;;;;0.82;0.77;;;18.90;99.90;;;;;;4993062;28;20054;-67
2022/07/11 10:03:23;;;;;;;1.42;0.77;;;18.80;99.90;;;;;;4991014;28;20112;-71
2022/07/11 10:06:10;;;;;;;1.13;0.70;;;18.80;99.90;;;;;;4993482;28;20137;-69
2022/07/11 10:08:37;;;;;;;1.20;0.68;;;18.90;99.90;;;;;;4993599;28;20050;-64
2022/07/11 10:11:04;;;;;;;0.52;0.52;;;18.90;99.90;;;;;;4992748;28;20479;-70
2022/07/11 10:13:32;;;;;;;4.38;1.48;;;19.10;99.90;;;;;;4991645;28;20104;-69
2022/07/11 10:16:03;;;;;;;1.70;1.00;;;19.10;99.90;;;;;;4994030;28;20046;-66
2022/07/11 10:18:45;;;;;;;1.00;0.90;;;19.20;99.90;;;;;;4992911;28;20057;-71
2022/07/11 10:21:18;;;;;;;1.10;0.75;;;19.10;99.90;;;;;;4991384;28;20058;-64
2022/07/11 10:24:23;;;;;;;1.00;0.70;;;19.20;99.90;;;;;;4994103;28;20050;-69
2022/07/11 10:27:22;;;;;;;1.95;0.70;;;19.30;99.90;;;;;;4993404;28;20045;-72
2022/07/11 10:29:52;;;;;;;1.92;0.60;;;19.20;99.90;;;;;;4992468;28;20042;-68
2022/07/11 10:32:19;;;;;;;2.15;1.02;;;19.20;99.90;;;;;;4992998;28;20058;-66
2022/07/11 10:35:15;;;;;;;0.80;0.68;;;19.30;99.90;;;;;;4992446;28;21300;-64
2022/07/11 10:37:51;;;;;;;1.63;0.80;;;19.40;99.90;;;;;;4991135;28;20065;-70
2022/07/11 10:40:40;;;;;;;3.08;1.35;;;19.30;99.90;;;;;;4992187;28;20137;-65
2022/07/11 10:43:07;;;;;;;2.15;0.50;;;19.30;99.90;;;;;;4990409;28;20752;-66
2022/07/11 10:45:50;;;;;;;0.93;0.93;;;19.20;99.90;;;;;;4991795;28;20088;-66
2022/07/11 10:48:17;;;;;;;1.67;0.85;;;19.20;99.90;;;;;;4991597;28;20057;-65
2022/07/11 10:50:44;;;;;;;0.85;0.70;;;19.30;99.90;;;;;;4993160;28;20141;-66
2022/07/11 10:53:21;;;;;;;0.82;0.82;;;19.40;99.90;;;;;;4989852;28;20085;-67
2022/07/11 10:56:24;;;;;;;2.90;0.95;;;19.40;99.90;;;;;;4992254;28;20138;-70
2022/07/11 10:59:16;;;;;;;0.98;0.50;;;19.40;99.90;;;;;;4989071;28;20046;-67
2022/07/11 11:02:07;;;;;;;1.15;0.57;;;19.40;99.90;;;;;;4992569;28;20167;-66
2022/07/11 11:04:43;;;;;;;3.30;0.60;;;19.60;99.90;;;;;;4992387;28;20144;-72
2022/07/11 11:07:35;;;;;;;5.47;3.00;;;19.60;99.90;;;;;;4988844;28;20115;-68
2022/07/11 11:10:06;;;;;;;1.95;0.70;;;19.50;99.90;;;;;;4990403;28;20050;-68
2022/07/11 11:13:04;;;;;;;1.45;0.63;;;19.60;99.90;;;;;;4990986;28;20053;-66
2022/07/11 11:15:34;;;;;;;1.05;0.50;;;19.50;99.90;;;;;;4972194;28;20050;-70
2022/07/11 11:18:20;;;;;;;;;;;19.60;99.90;;;;;;4991078;28;20054;-71
2022/07/11 11:20:47;;;;;;;2.25;0.47;;;19.60;99.90;;;;;;4991314;28;19933;-66
2022/07/11 11:23:21;;;;;;;1.60;0.50;;;19.50;99.90;;;;;;4989716;28;20053;-66
2022/07/11 11:25:51;;;;;;;2.75;0.77;;;19.60;99.90;;;;;;4991049;28;20132;-67
2022/07/11 11:28:22;;;;;;;2.95;0.73;;;19.60;99.90;;;;;;4990714;28;20132;-64
2022/07/11 11:30:57;;;;;;;0.90;0.47;;;19.50;99.90;;;;;;4992321;28;20085;-67
2022/07/11 11:33:36;;;;;;;2.42;0.65;;;19.50;99.90;;;;;;4989814;28;20042;-67
2022/07/11 11:36:09;;;;;;;1.13;0.60;;;19.60;99.90;;;;;;4990723;28;20412;-66
2022/07/11 11:38:40;;;;;;;1.05;0.40;;;19.60;99.90;;;;;;4991974;28;20073;-68
2022/07/11 11:41:08;;;;;;;1.08;0.68;;;19.70;99.90;;;;;;4990235;28;20054;-70
2022/07/11 11:43:37;;;;;;;1.13;1.02;;;19.80;99.90;;;;;;4991038;28;20077;-64
2022/07/11 11:46:04;;;;;;;0.40;0.40;;;19.80;99.90;;;;;;4992078;28;20133;-67
2022/07/11 11:48:38;;;;;;;0.85;0.60;;;19.80;99.90;;;;;;4991679;28;20057;-66
2022/07/11 11:51:18;;;;;;;1.05;0.60;;;19.90;99.90;;;;;;4990707;28;20109;-64
2022/07/11 11:53:47;;;;;;;0.70;0.40;;;19.90;99.90;;;;;;4988870;28;20666;-70
2022/07/11 11:56:23;;;;;;;2.10;0.40;;;19.90;99.90;;;;;;4991221;28;21321;-67
2022/07/11 11:58:52;;;;;;;1.65;0.52;;;20.00;99.90;;;;;;4991139;28;20743;-64
2022/07/11 12:01:32;;;;;;;3.95;0.50;;;19.90;99.90;;;;;;4989453;28;20699;-68
2022/07/11 12:04:00;;;;;;;;;;;19.90;99.90;;;;;;4992037;28;20385;-68
2022/07/11 12:06:29;;;;;;;0.65;0.45;;;19.80;99.90;;;;;;4990627;28;19925;-70
2022/07/11 12:14:56;;;;;;;0.43;0.35;;;19.90;99.90;;;;;;4991088;28;20065;-69
2022/07/11 12:17:29;;;;;;;1.02;0.40;;;20.00;99.90;;;;;;4989055;28;20046;-70
2022/07/11 12:19:56;;;;;;;0.57;0.30;;;20.10;99.90;;;;;;4991258;28;20053;-68
2022/07/11 12:22:25;;;;;;;1.10;0.40;;;20.00;99.90;;;;;;4990824;28;20125;-71
2022/07/11 12:24:53;;;;;;;0.70;0.32;;;20.00;99.90;;;;;;4990820;28;20137;-72
2022/07/11 12:27:21;;;;;;;2.00;0.52;;;20.10;99.90;;;;;;4988818;28;20125;-64
2022/07/11 12:29:52;;;;;;;0.68;0.40;;;20.00;99.90;;;;;;4990636;28;20483;-66
2022/07/11 12:32:21;;;;;;;1.95;0.25;;;20.10;99.90;;;;;;4990279;28;20163;-67
2022/07/11 12:34:49;;;;;;;0.63;0.20;;;20.20;99.90;;;;;;4990996;28;20101;-72
2022/07/11 12:37:35;;;;;;;0.38;0.17;;;20.20;99.90;;;;;;4987656;28;20054;-64
2022/07/11 12:40:04;;;;;;;1.27;0.40;;;20.10;99.90;;;;;;4991522;28;20050;-65
2022/07/11 12:42:33;;;;;;;0.73;0.45;;;20.10;99.90;;;;;;4989385;28;21170;-66
2022/07/11 12:45:15;;;;;;;0.55;0.30;;;20.10;99.90;;;;;;4989929;28;20081;-65
2022/07/11 12:47:47;;;;;;;0.80;0.30;;;20.10;99.90;;;;;;4988485;28;20096;-67
2022/07/11 12:50:17;;;;;;;1.17;0.40;;;20.10;99.90;;;;;;4991124;28;20401;-70
2022/07/11 12:52:52;;;;;;;1.30;0.20;;;20.20;99.90;;;;;;4991416;28;20436;-65
2022/07/11 12:55:35;;;;;;;1.75;0.50;;;20.10;99.90;;;;;;4988009;28;20046;-71
2022/07/11 12:58:05;;;;;;;0.98;0.38;;;20.30;99.90;;;;;;4990318;28;20100;-70
2022/07/11 13:00:37;;;;;;;;;;;20.40;99.90;;;;;;4990545;28;20563;-68
2022/07/11 13:03:05;;;;;;;0.73;0.20;;;20.40;99.90;;;;;;4990287;28;20648;-67
2022/07/11 13:05:52;;;;;;;0.17;0.17;;;20.30;99.90;;;;;;4988311;28;20511;-71
2022/07/11 13:08:42;;;;;;;0.15;0.15;;;20.30;99.90;;;;;;4990231;28;20062;-65
2022/07/11 13:11:12;;;;;;;;;;;20.50;99.90;;;;;;4988579;28;20133;-72
2022/07/11 13:13:40;;;;;;;0.17;0.15;;;20.50;99.90;;;;;;4990322;28;20008;-67